createdAt,value
2023-05-22T00:00:28.389Z,9.18
2023-05-22T00:02:55.463Z,8.57
2023-05-22T00:05:22.619Z,8.85
2023-05-22T00:07:50.209Z,9.15
2023-05-22T00:10:17.221Z,9.95
2023-05-22T00:12:44.028Z,9.05
2023-05-22T00:15:11.610Z,9.32
2023-05-22T00:17:38.776Z,9.68
2023-05-22T00:20:10.788Z,9.73
2023-05-22T00:22:38.301Z,8.75
2023-05-22T00:25:06.344Z,11.10
2023-05-22T00:27:33.970Z,9.80
2023-05-22T00:30:01.488Z,10.57
2023-05-22T00:32:29.148Z,9.80
2023-05-22T00:34:56.132Z,9.70
2023-05-22T00:37:23.224Z,10.02
2023-05-22T00:39:50.173Z,9.55
2023-05-22T00:42:18.206Z,11.27
2023-05-22T00:44:45.058Z,11.35
2023-05-22T00:47:11.962Z,11.07
2023-05-22T00:49:39.398Z,11.30
2023-05-22T00:52:06.433Z,9.43
2023-05-22T00:54:33.481Z,8.68
2023-05-22T00:57:03.018Z,9.68
2023-05-22T00:59:31.057Z,11.02
2023-05-22T01:02:01.577Z,9.68
2023-05-22T01:04:32.562Z,9.20
2023-05-22T01:07:02.763Z,10.00
2023-05-22T01:09:30.291Z,9.70
2023-05-22T01:12:26.506Z,9.65
2023-05-22T01:15:17.432Z,9.25
2023-05-22T01:17:59.502Z,9.32
2023-05-22T01:20:37.116Z,9.75
2023-05-22T01:23:23.042Z,10.90
2023-05-22T01:26:19.754Z,10.63
2023-05-22T01:29:10.793Z,9.65
2023-05-22T01:31:41.456Z,9.75
2023-05-22T01:34:11.895Z,9.48
2023-05-22T01:36:41.689Z,9.73
2023-05-22T01:39:09.328Z,10.93
2023-05-22T01:41:36.483Z,10.63
2023-05-22T01:44:06.673Z,10.15
2023-05-22T01:46:33.738Z,10.35
2023-05-22T01:49:00.734Z,11.02
2023-05-22T01:51:33.360Z,12.10
2023-05-22T01:54:20.100Z,11.75
2023-05-22T01:56:48.812Z,10.13
2023-05-22T01:59:31.017Z,10.43
2023-05-22T02:02:03.837Z,11.10
2023-05-22T02:04:32.591Z,11.00
2023-05-22T02:07:01.126Z,11.18
2023-05-22T02:09:31.084Z,10.65
2023-05-22T02:11:59.772Z,11.68
2023-05-22T02:14:29.332Z,11.35
2023-05-22T02:16:56.777Z,11.40
2023-05-22T02:19:24.396Z,10.68
2023-05-22T02:21:51.427Z,10.75
2023-05-22T02:24:18.529Z,12.30
2023-05-22T02:26:46.498Z,10.32
2023-05-22T02:29:13.514Z,11.55
2023-05-22T02:31:40.394Z,11.15
2023-05-22T02:34:07.308Z,9.88
2023-05-22T02:36:34.168Z,11.07
2023-05-22T02:39:01.059Z,10.98
2023-05-22T02:41:29.555Z,10.15
2023-05-22T02:43:57.108Z,8.80
2023-05-22T02:46:24.117Z,10.52
2023-05-22T02:48:51.066Z,9.18
2023-05-22T02:51:18.792Z,9.68
2023-05-22T02:53:45.692Z,10.70
2023-05-22T02:56:12.652Z,9.85
2023-05-22T02:58:39.874Z,9.25
2023-05-22T03:01:08.948Z,9.95
2023-05-22T03:03:36.483Z,11.75
2023-05-22T03:06:04.240Z,11.77
2023-05-22T03:08:33.074Z,12.65
2023-05-22T03:11:01.332Z,12.27
2023-05-22T03:13:28.268Z,12.30
2023-05-22T03:15:56.271Z,12.57
2023-05-22T03:18:26.677Z,12.55
2023-05-22T03:20:55.220Z,13.75
2023-05-22T03:23:22.043Z,12.65
2023-05-22T03:25:49.228Z,12.40
2023-05-22T03:28:16.422Z,13.23
2023-05-22T03:30:44.285Z,13.48
2023-05-22T03:33:17.399Z,13.65
2023-05-22T03:35:44.543Z,15.45
2023-05-22T03:38:11.912Z,13.77
2023-05-22T03:40:40.186Z,16.02
2023-05-22T03:43:08.594Z,16.52
2023-05-22T03:45:35.780Z,16.52
2023-05-22T03:48:04.196Z,15.90
2023-05-22T03:50:31.181Z,17.02
2023-05-22T03:52:58.193Z,14.90
2023-05-22T03:55:26.603Z,17.52
2023-05-22T03:57:53.504Z,14.68
2023-05-22T04:00:20.769Z,17.45
2023-05-22T04:02:48.014Z,18.73
2023-05-22T04:05:15.033Z,18.08
2023-05-22T04:07:43.660Z,18.35
2023-05-22T04:10:11.062Z,17.63
2023-05-22T04:12:38.008Z,16.90
2023-05-22T04:15:05.258Z,18.15
2023-05-22T04:17:35.430Z,17.58
2023-05-22T04:20:06.474Z,18.48
2023-05-22T04:22:33.882Z,17.55
2023-05-22T04:25:01.027Z,16.20
2023-05-22T04:27:29.990Z,18.42
2023-05-22T04:29:57.010Z,17.25
2023-05-22T04:32:25.121Z,18.10
2023-05-22T04:34:52.205Z,18.00
2023-05-22T04:37:20.210Z,17.10
2023-05-22T04:39:47.992Z,15.77
2023-05-22T04:42:15.878Z,18.50
2023-05-22T04:44:43.580Z,19.40
2023-05-22T04:47:12.017Z,18.73
2023-05-22T04:49:39.157Z,18.98
2023-05-22T04:52:07.193Z,17.25
2023-05-22T04:54:34.818Z,17.17
2023-05-22T04:57:04.498Z,17.13
2023-05-22T04:59:39.986Z,17.02
2023-05-22T05:02:07.047Z,16.38
2023-05-22T05:04:34.336Z,15.70
2023-05-22T05:07:02.622Z,18.17
2023-05-22T05:09:29.659Z,15.88
2023-05-22T05:11:56.880Z,16.40
2023-05-22T05:14:24.117Z,14.45
2023-05-22T05:16:54.762Z,12.30
2023-05-22T05:19:21.833Z,13.63
2023-05-22T05:21:49.740Z,13.38
2023-05-22T05:24:18.063Z,14.20
2023-05-22T05:26:45.901Z,13.25
2023-05-22T05:29:12.946Z,11.80
2023-05-22T05:31:50.951Z,13.77
2023-05-22T05:34:29.115Z,14.27
2023-05-22T05:37:05.668Z,14.52
2023-05-22T05:39:33.618Z,13.00
2023-05-22T05:42:03.006Z,13.00
2023-05-22T05:44:30.024Z,13.57
2023-05-22T05:46:57.269Z,13.55
2023-05-22T05:49:24.248Z,14.10
2023-05-22T05:51:51.610Z,14.75
2023-05-22T05:54:20.405Z,13.88
2023-05-22T05:56:49.600Z,15.07
2023-05-22T05:59:16.624Z,14.50
2023-05-22T06:01:59.181Z,12.05
2023-05-22T06:04:30.105Z,13.18
2023-05-22T06:06:56.993Z,13.63
2023-05-22T06:09:34.040Z,12.45
2023-05-22T06:12:14.890Z,12.85
2023-05-22T06:14:44.697Z,12.98
2023-05-22T06:17:12.490Z,13.23
2023-05-22T06:19:42.465Z,13.98
2023-05-22T06:22:09.900Z,14.85
2023-05-22T06:24:39.506Z,14.80
2023-05-22T06:27:12.298Z,13.68
2023-05-22T06:29:39.571Z,13.55
2023-05-22T06:32:07.995Z,13.30
2023-05-22T06:34:36.531Z,14.23
2023-05-22T06:37:03.745Z,12.82
2023-05-22T06:39:36.282Z,12.80
2023-05-22T06:42:10.950Z,12.35
2023-05-22T06:44:56.766Z,14.45
2023-05-22T06:47:28.566Z,13.77
2023-05-22T06:49:55.667Z,14.60
2023-05-22T06:52:22.695Z,15.13
2023-05-22T06:54:51.746Z,14.55
2023-05-22T06:57:18.785Z,14.43
2023-05-22T06:59:46.129Z,13.27
2023-05-22T07:02:36.061Z,16.15
2023-05-22T07:05:22.858Z,15.85
2023-05-22T07:07:56.287Z,15.40
2023-05-22T07:10:24.972Z,14.88
2023-05-22T07:12:53.327Z,16.15
2023-05-22T07:15:20.388Z,17.60
2023-05-22T07:17:53.125Z,17.27
2023-05-22T07:20:20.588Z,18.17
2023-05-22T07:23:09.175Z,17.20
2023-05-22T07:25:38.752Z,17.10
2023-05-22T07:28:09.021Z,18.50
2023-05-22T07:30:42.384Z,16.85
2023-05-22T07:33:09.415Z,15.18
2023-05-22T07:35:36.489Z,17.02
2023-05-22T07:38:04.064Z,16.02
2023-05-22T07:40:31.456Z,15.82
2023-05-22T07:43:01.756Z,14.45
2023-05-22T07:45:29.016Z,16.55
2023-05-22T07:47:59.091Z,17.13
2023-05-22T07:50:27.699Z,16.92
2023-05-22T07:52:54.750Z,16.48
2023-05-22T07:55:22.474Z,15.98
2023-05-22T07:57:52.828Z,15.40
2023-05-22T08:00:29.235Z,14.10
2023-05-22T08:02:56.600Z,15.18
2023-05-22T08:05:23.825Z,14.15
2023-05-22T08:07:50.874Z,14.02
2023-05-22T08:10:18.980Z,14.95
2023-05-22T08:12:46.025Z,15.18
2023-05-22T08:15:16.430Z,13.73
2023-05-22T08:17:44.522Z,14.70
2023-05-22T08:20:12.082Z,14.88
2023-05-22T08:22:39.512Z,14.02
2023-05-22T08:25:07.689Z,14.88
2023-05-22T08:27:37.018Z,16.73
2023-05-22T08:30:08.942Z,17.92
2023-05-22T08:32:36.032Z,15.27
2023-05-22T08:35:03.104Z,14.95
2023-05-22T08:37:29.918Z,14.25
2023-05-22T08:39:57.376Z,19.13
2023-05-22T08:42:25.036Z,19.13
2023-05-22T08:44:55.750Z,18.35
2023-05-22T08:47:26.663Z,18.02
2023-05-22T08:49:55.409Z,19.63
2023-05-22T08:52:26.043Z,21.42
2023-05-22T08:54:55.466Z,20.67
2023-05-22T08:57:23.421Z,18.33
2023-05-22T08:59:53.047Z,18.98
2023-05-22T09:02:20.042Z,17.13
2023-05-22T09:04:47.011Z,17.70
2023-05-22T09:07:14.505Z,17.75
2023-05-22T09:09:42.151Z,16.75
2023-05-22T09:12:10.133Z,15.73
2023-05-22T09:14:41.108Z,14.98
2023-05-22T09:17:11.471Z,18.00
2023-05-22T09:19:42.748Z,17.13
2023-05-22T09:22:09.810Z,17.17
2023-05-22T09:24:44.545Z,15.15
2023-05-22T09:27:12.210Z,14.20
2023-05-22T09:29:53.432Z,15.75
2023-05-22T09:32:21.522Z,15.25
2023-05-22T09:34:50.407Z,13.35
2023-05-22T09:37:18.274Z,13.60
2023-05-22T09:39:46.943Z,13.50
2023-05-22T09:42:18.204Z,14.13
2023-05-22T09:44:55.916Z,13.50
2023-05-22T09:47:23.911Z,12.55
2023-05-22T09:49:52.348Z,13.85
2023-05-22T09:52:20.583Z,12.15
2023-05-22T09:54:55.387Z,11.65
2023-05-22T09:57:24.818Z,11.82
2023-05-22T09:59:58.521Z,13.30
2023-05-22T10:02:31.986Z,12.57
2023-05-22T10:05:00.607Z,11.73
2023-05-22T10:07:36.388Z,12.63
2023-05-22T10:10:12.678Z,12.10
2023-05-22T10:12:49.683Z,13.35
2023-05-22T10:15:17.793Z,13.10
2023-05-22T10:17:45.277Z,11.93
2023-05-22T10:20:13.187Z,10.57
2023-05-22T10:22:42.041Z,13.63
2023-05-22T10:25:11.198Z,13.27
2023-05-22T10:27:39.650Z,13.27
2023-05-22T10:30:17.152Z,13.63
2023-05-22T10:33:24.689Z,13.40
2023-05-22T10:36:49.306Z,13.38
2023-05-22T10:39:21.571Z,13.88
2023-05-22T10:41:48.861Z,13.57
2023-05-22T10:44:17.348Z,12.98
2023-05-22T10:46:50.188Z,14.30
2023-05-22T10:49:26.210Z,12.83
2023-05-22T10:51:57.199Z,13.52
2023-05-22T10:54:49.136Z,13.48
2023-05-22T10:57:17.206Z,15.02
2023-05-22T10:59:47.391Z,13.73
2023-05-22T11:02:31.393Z,13.13
2023-05-22T11:05:27.627Z,14.65
2023-05-22T11:08:27.353Z,12.95
2023-05-22T11:11:01.539Z,13.20
2023-05-22T11:13:29.620Z,13.63
2023-05-22T11:15:58.281Z,13.27
2023-05-22T11:18:30.590Z,12.88
2023-05-22T11:21:00.675Z,11.57
2023-05-22T11:23:27.572Z,13.55
2023-05-22T11:25:54.462Z,11.65
2023-05-22T11:28:23.235Z,13.18
2023-05-22T11:30:52.363Z,11.88
2023-05-22T11:33:19.749Z,13.25
2023-05-22T11:35:49.374Z,11.77
2023-05-22T11:38:18.009Z,12.63
2023-05-22T11:40:44.951Z,13.27
2023-05-22T11:43:12.151Z,12.98
2023-05-22T11:45:41.050Z,11.25
2023-05-22T11:48:08.939Z,12.10
2023-05-22T11:50:42.152Z,11.43
2023-05-22T11:55:36.800Z,11.90
2023-05-22T11:58:03.744Z,12.05
2023-05-22T12:00:31.561Z,12.65
2023-05-22T12:02:59.009Z,10.73
2023-05-22T12:05:26.055Z,10.93
2023-05-22T12:07:53.279Z,11.98
2023-05-22T12:10:20.387Z,11.15
2023-05-22T12:12:48.156Z,12.02
2023-05-22T12:15:20.715Z,10.73
2023-05-22T12:17:47.868Z,12.07
2023-05-22T12:20:14.905Z,11.48
2023-05-22T12:22:45.889Z,10.52
2023-05-22T12:25:16.274Z,12.63
2023-05-22T12:27:46.547Z,11.00
2023-05-22T12:30:14.010Z,12.38
2023-05-22T12:32:41.076Z,10.80
2023-05-22T12:35:15.847Z,10.45
2023-05-22T12:37:51.696Z,10.70
2023-05-22T12:40:19.581Z,10.70
2023-05-22T12:42:48.039Z,10.10
2023-05-22T12:45:15.304Z,10.73
2023-05-22T12:47:43.783Z,9.70
2023-05-22T12:50:11.089Z,10.65
2023-05-22T12:52:38.060Z,10.77
2023-05-22T12:55:05.397Z,10.02
2023-05-22T12:57:32.279Z,9.40
2023-05-22T12:59:59.206Z,9.13
2023-05-22T13:02:26.122Z,10.68
2023-05-22T13:04:52.975Z,11.35
2023-05-22T13:07:19.800Z,11.32
2023-05-22T13:09:49.012Z,11.48
2023-05-22T13:12:19.437Z,12.00
2023-05-22T13:14:46.774Z,11.07
2023-05-22T13:17:14.128Z,11.38
2023-05-22T13:19:40.924Z,11.65
2023-05-22T13:22:11.123Z,10.73
2023-05-22T13:24:38.030Z,11.05
2023-05-22T13:27:05.141Z,9.43
2023-05-22T13:29:34.931Z,10.35
2023-05-22T13:32:01.978Z,10.65
2023-05-22T13:34:29.561Z,11.07
2023-05-22T13:36:56.558Z,11.23
2023-05-22T13:39:23.435Z,11.30
2023-05-22T13:41:52.569Z,9.88
2023-05-22T13:44:21.077Z,10.80
2023-05-22T13:46:47.995Z,10.43
2023-05-22T13:49:14.972Z,9.27
2023-05-22T13:51:41.778Z,9.18
2023-05-22T13:54:08.679Z,8.38
2023-05-22T13:56:35.570Z,7.55
2023-05-22T13:59:02.649Z,6.72
2023-05-22T14:01:30.068Z,8.50
2023-05-22T14:03:57.362Z,8.48
2023-05-22T14:06:26.016Z,7.15
2023-05-22T14:08:52.878Z,8.38
2023-05-22T14:11:19.709Z,8.32
2023-05-22T14:13:46.725Z,8.23
2023-05-22T14:16:13.997Z,9.50
2023-05-22T14:18:41.246Z,8.52
2023-05-22T14:21:08.105Z,10.15
2023-05-22T14:23:34.970Z,8.88
2023-05-22T14:26:01.748Z,8.80
2023-05-22T14:28:28.631Z,9.23
2023-05-22T14:30:56.203Z,9.20
2023-05-22T14:33:23.395Z,8.45
2023-05-22T14:35:51.550Z,8.50
2023-05-22T14:38:18.788Z,10.45
2023-05-22T14:40:45.691Z,9.75
2023-05-22T14:43:12.579Z,10.48
2023-05-22T14:45:39.637Z,11.70
2023-05-22T14:48:08.316Z,9.68
2023-05-22T14:50:36.507Z,9.90
2023-05-22T14:53:03.484Z,10.13
2023-05-22T14:55:31.691Z,9.38
2023-05-22T14:57:58.643Z,10.13
2023-05-22T15:00:26.310Z,8.20
2023-05-22T15:02:53.238Z,11.20
2023-05-22T15:05:20.404Z,9.43
2023-05-22T15:07:49.016Z,10.85
2023-05-22T15:10:17.594Z,9.40
2023-05-22T15:12:44.424Z,8.65
2023-05-22T15:15:11.690Z,9.20
2023-05-22T15:17:40.760Z,8.68
2023-05-22T15:20:10.648Z,9.38
2023-05-22T15:22:37.622Z,10.27
2023-05-22T15:25:06.484Z,11.07
2023-05-22T15:27:34.931Z,10.75
2023-05-22T15:30:02.504Z,11.02
2023-05-22T15:32:32.312Z,11.02
2023-05-22T15:34:59.271Z,9.98
2023-05-22T15:37:26.750Z,11.02
2023-05-22T15:39:53.642Z,10.35
2023-05-22T15:42:20.664Z,9.80
2023-05-22T15:44:47.710Z,9.95
2023-05-22T15:47:14.826Z,9.63
2023-05-22T15:49:41.689Z,11.55
2023-05-22T15:52:08.701Z,9.68
2023-05-22T15:54:35.761Z,9.85
2023-05-22T15:57:02.628Z,11.23
2023-05-22T15:59:29.701Z,8.43
2023-05-22T16:01:56.462Z,10.60
2023-05-22T16:04:23.558Z,9.25
2023-05-22T16:06:50.732Z,10.45
2023-05-22T16:09:19.371Z,9.95
2023-05-22T16:11:46.397Z,11.15
2023-05-22T16:14:13.361Z,10.05
2023-05-22T16:16:40.936Z,10.65
2023-05-22T16:19:08.068Z,9.27
2023-05-22T16:21:35.050Z,11.27
2023-05-22T16:24:02.033Z,10.40
2023-05-22T16:26:29.133Z,11.63
2023-05-22T16:28:55.957Z,10.25
2023-05-22T16:31:22.989Z,10.48
2023-05-22T16:33:49.935Z,11.48
2023-05-22T16:36:16.817Z,10.35
2023-05-22T16:38:43.748Z,10.68
2023-05-22T16:41:11.136Z,11.40
2023-05-22T16:43:38.250Z,11.00
2023-05-22T16:46:05.114Z,10.25
2023-05-22T16:48:31.955Z,9.80
2023-05-22T16:50:58.856Z,10.00
2023-05-22T16:53:25.757Z,9.00
2023-05-22T16:55:52.548Z,10.00
2023-05-22T16:58:19.563Z,10.25
2023-05-22T17:00:46.786Z,8.50
2023-05-22T17:03:14.018Z,9.70
2023-05-22T17:05:41.392Z,10.75
2023-05-22T17:08:10.100Z,8.73
2023-05-22T17:10:37.219Z,8.85
2023-05-22T17:13:04.237Z,9.40
2023-05-22T17:15:31.414Z,8.80
2023-05-22T17:17:58.453Z,9.43
2023-05-22T17:20:25.865Z,8.13
2023-05-22T17:22:52.758Z,8.15
2023-05-22T17:25:21.358Z,8.38
2023-05-22T17:27:48.473Z,8.35
2023-05-22T17:30:15.559Z,8.05
2023-05-22T17:32:42.400Z,7.70
2023-05-22T17:35:09.522Z,7.82
2023-05-22T17:37:37.386Z,7.95
2023-05-22T17:40:04.918Z,7.45
2023-05-22T17:42:31.818Z,7.30
2023-05-22T17:44:59.717Z,7.30
2023-05-22T17:47:26.663Z,6.68
2023-05-22T17:49:53.607Z,6.88
2023-05-22T17:52:20.517Z,6.50
2023-05-22T17:54:47.378Z,5.63
2023-05-22T17:57:14.361Z,6.18
2023-05-22T17:59:41.356Z,5.25
2023-05-22T18:02:09.487Z,6.25
2023-05-22T18:04:36.528Z,6.13
2023-05-22T18:07:03.884Z,5.50
2023-05-22T18:09:31.088Z,5.20
2023-05-22T18:11:59.078Z,5.53
2023-05-22T18:14:25.994Z,5.07
2023-05-22T18:16:53.327Z,4.47
2023-05-22T18:19:20.552Z,4.40
2023-05-22T18:21:47.596Z,4.80
2023-05-22T18:24:15.592Z,4.88
2023-05-22T18:26:42.439Z,4.15
2023-05-22T18:29:09.983Z,5.05
2023-05-22T18:31:36.877Z,5.20
2023-05-22T18:34:03.816Z,4.25
2023-05-22T18:36:31.732Z,4.82
2023-05-22T18:38:58.568Z,3.95
2023-05-22T18:41:26.399Z,4.72
2023-05-22T18:43:53.325Z,5.10
2023-05-22T18:46:20.107Z,5.13
2023-05-22T18:48:47.055Z,5.43
2023-05-22T18:51:14.046Z,5.07
2023-05-22T18:53:41.044Z,5.70
2023-05-22T18:56:08.112Z,5.35
2023-05-22T18:58:35.182Z,6.13
2023-05-22T19:01:02.465Z,5.03
2023-05-22T19:03:29.472Z,6.07
2023-05-22T19:05:56.588Z,4.55
2023-05-22T19:08:26.456Z,5.07
2023-05-22T19:10:54.973Z,5.45
2023-05-22T19:13:21.971Z,4.63
2023-05-22T19:15:48.899Z,5.32
2023-05-22T19:18:15.955Z,5.72
2023-05-22T19:20:42.970Z,4.50
2023-05-22T19:23:11.349Z,5.15
2023-05-22T19:25:38.516Z,5.95
2023-05-22T19:28:05.419Z,6.43
2023-05-22T19:30:32.567Z,6.82
2023-05-22T19:33:02.072Z,5.68
2023-05-22T19:35:33.317Z,5.53
2023-05-22T19:38:00.321Z,6.32
2023-05-22T19:40:27.176Z,7.13
2023-05-22T19:42:54.263Z,6.18
2023-05-22T19:45:21.308Z,6.53
2023-05-22T19:47:48.577Z,6.78
2023-05-22T19:50:15.682Z,7.70
2023-05-22T19:52:42.762Z,6.65
2023-05-22T19:55:13.634Z,6.50
2023-05-22T19:57:44.165Z,7.43
2023-05-22T20:00:12.219Z,7.03
2023-05-22T20:02:42.296Z,7.10
2023-05-22T20:05:12.869Z,7.60
2023-05-22T20:07:42.198Z,6.25
2023-05-22T20:10:10.201Z,6.22
2023-05-22T20:12:37.789Z,7.45
2023-05-22T20:15:06.867Z,7.53
2023-05-22T20:17:34.517Z,7.68
2023-05-22T20:20:01.576Z,8.77
2023-05-22T20:22:28.583Z,6.57
2023-05-22T20:24:55.783Z,9.35
2023-05-22T20:27:22.682Z,8.02
2023-05-22T20:29:52.464Z,10.35
2023-05-22T20:32:19.427Z,9.23
2023-05-22T20:34:46.443Z,11.05
2023-05-22T20:37:13.841Z,12.15
2023-05-22T20:39:44.385Z,11.88
2023-05-22T20:42:12.940Z,10.95
2023-05-22T20:44:41.280Z,10.13
2023-05-22T20:47:09.521Z,13.27
2023-05-22T20:49:36.368Z,11.02
2023-05-22T20:52:04.556Z,10.93
2023-05-22T20:54:34.141Z,11.95
2023-05-22T20:57:01.919Z,11.40
2023-05-22T20:59:29.025Z,10.95
2023-05-22T21:01:57.034Z,11.68
2023-05-22T21:04:24.156Z,10.75
2023-05-22T21:06:51.298Z,9.73
2023-05-22T21:09:18.342Z,11.32
2023-05-22T21:11:45.232Z,10.57
2023-05-22T21:14:12.092Z,11.45
2023-05-22T21:16:40.021Z,11.07
2023-05-22T21:19:07.479Z,12.85
2023-05-22T21:21:36.189Z,11.68
2023-05-22T21:24:03.353Z,11.32
2023-05-22T21:26:30.377Z,10.52
2023-05-22T21:28:57.534Z,12.30
2023-05-22T21:31:24.445Z,12.23
2023-05-22T21:33:51.435Z,11.40
2023-05-22T21:36:18.257Z,9.75
2023-05-22T21:38:45.531Z,11.57
2023-05-22T21:41:13.533Z,9.98
2023-05-22T21:43:40.445Z,10.57
2023-05-22T21:46:07.604Z,11.98
2023-05-22T21:48:34.469Z,10.73
2023-05-22T21:51:01.387Z,11.55
2023-05-22T21:53:28.231Z,10.00
2023-05-22T21:55:55.317Z,10.20
2023-05-22T21:58:22.172Z,9.95
2023-05-22T22:00:49.059Z,10.50
2023-05-22T22:03:16.168Z,11.00
2023-05-22T22:05:43.165Z,8.98
2023-05-22T22:08:09.972Z,9.57
2023-05-22T22:10:36.806Z,9.68
2023-05-22T22:13:03.782Z,9.57
2023-05-22T22:15:32.062Z,10.18
2023-05-22T22:18:02.119Z,11.15
2023-05-22T22:20:43.303Z,12.60
2023-05-22T22:23:11.665Z,10.35
2023-05-22T22:25:39.069Z,12.40
2023-05-22T22:28:07.155Z,10.73
2023-05-22T22:30:35.347Z,11.05
2023-05-22T22:33:02.795Z,11.43
2023-05-22T22:35:29.779Z,13.13
2023-05-22T22:37:57.894Z,12.80
2023-05-22T22:40:26.682Z,13.43
2023-05-22T22:42:53.850Z,12.55
2023-05-22T22:45:20.761Z,12.68
2023-05-22T22:47:48.221Z,13.15
2023-05-22T22:50:15.113Z,12.10
2023-05-22T22:52:45.309Z,11.32
2023-05-22T22:55:12.553Z,13.50
2023-05-22T22:57:39.570Z,12.77
2023-05-22T23:00:07.842Z,13.13
2023-05-22T23:02:34.737Z,13.13
2023-05-22T23:05:01.893Z,12.23
2023-05-22T23:07:28.892Z,14.13
2023-05-22T23:09:55.817Z,12.80
2023-05-22T23:12:22.674Z,12.18
2023-05-22T23:14:52.598Z,11.88
2023-05-22T23:17:19.529Z,10.15
2023-05-22T23:19:46.767Z,11.75
2023-05-22T23:22:13.692Z,10.35
2023-05-22T23:24:40.674Z,10.80
2023-05-22T23:27:07.621Z,11.02
2023-05-22T23:29:34.482Z,9.85
2023-05-22T23:32:01.383Z,10.25
2023-05-22T23:34:28.226Z,10.70
2023-05-22T23:36:55.077Z,10.05
2023-05-22T23:39:21.963Z,8.95
2023-05-22T23:41:49.573Z,9.57
2023-05-22T23:44:16.406Z,11.73
2023-05-22T23:46:43.991Z,7.97
2023-05-22T23:49:10.897Z,9.02
2023-05-22T23:51:37.703Z,8.38
2023-05-22T23:54:05.835Z,7.65
2023-05-22T23:56:32.768Z,8.75
2023-05-22T23:58:59.660Z,7.80
